createdAt,value
2022-08-07T00:04:24.809Z,21.10
2022-08-07T00:10:17.730Z,18.87
2022-08-07T00:15:38.361Z,20.50
2022-08-07T00:27:06.102Z,17.87
2022-08-07T00:29:45.873Z,20.37
2022-08-07T00:38:09.718Z,20.13
2022-08-07T00:44:01.151Z,20.87
2022-08-07T00:46:39.172Z,17.63
2022-08-07T00:52:20.009Z,20.17
2022-08-07T00:55:10.654Z,18.00
2022-08-07T01:01:02.677Z,22.47
2022-08-07T01:10:04.180Z,18.90
2022-08-07T01:15:04.255Z,21.10
2022-08-07T01:20:43.046Z,20.20
2022-08-07T01:26:13.156Z,19.37
2022-08-07T01:29:03.150Z,18.87
2022-08-07T01:37:21.785Z,18.43
2022-08-07T01:40:14.836Z,18.63
2022-08-07T01:45:49.962Z,18.40
2022-08-07T01:54:33.325Z,17.50
2022-08-07T01:57:08.255Z,19.13
2022-08-07T01:59:58.830Z,17.60
2022-08-07T02:08:26.939Z,19.43
2022-08-07T02:20:04.660Z,15.37
2022-08-07T02:26:10.429Z,16.77
2022-08-07T02:31:10.320Z,15.67
2022-08-07T02:36:51.943Z,15.17
2022-08-07T02:40:01.771Z,18.80
2022-08-07T02:42:34.859Z,17.43
2022-08-07T02:48:10.035Z,16.13
2022-08-07T02:53:43.681Z,16.13
2022-08-07T02:56:35.324Z,17.33
2022-08-07T03:02:06.639Z,17.63
2022-08-07T03:04:57.262Z,16.53
2022-08-07T03:08:07.370Z,16.23
2022-08-07T03:13:21.358Z,17.97
2022-08-07T03:16:14.341Z,14.97
2022-08-07T03:21:50.744Z,13.83
2022-08-07T03:24:39.478Z,17.87
2022-08-07T03:27:59.542Z,15.03
2022-08-07T03:33:03.149Z,13.13
2022-08-07T03:35:52.374Z,15.13
2022-08-07T03:44:01.547Z,14.63
2022-08-07T03:49:39.085Z,13.50
2022-08-07T03:55:12.255Z,17.47
2022-08-07T03:58:33.100Z,15.00
2022-08-07T04:00:59.437Z,14.13
2022-08-07T04:03:53.168Z,14.70
2022-08-07T04:06:40.652Z,13.87
2022-08-07T04:09:45.299Z,13.50
2022-08-07T04:15:02.145Z,15.27
2022-08-07T04:20:30.918Z,15.90
2022-08-07T04:23:21.134Z,15.07
2022-08-07T04:26:10.944Z,16.30
2022-08-07T04:32:03.240Z,14.73
2022-08-07T04:37:20.469Z,16.73
2022-08-07T04:40:08.841Z,15.80
2022-08-07T04:46:01.357Z,14.63
2022-08-07T04:48:46.272Z,15.83
2022-08-07T04:54:30.218Z,15.47
2022-08-07T05:00:18.941Z,15.17
2022-08-07T05:05:57.174Z,15.17
2022-08-07T05:11:58.148Z,15.90
2022-08-07T05:17:12.208Z,18.27
2022-08-07T05:22:49.188Z,16.40
2022-08-07T05:26:10.302Z,16.20
2022-08-07T05:34:05.718Z,17.27
2022-08-07T05:40:18.016Z,17.43
2022-08-07T05:45:46.154Z,16.97
2022-08-07T05:50:59.435Z,17.53
2022-08-07T05:56:36.890Z,18.00
2022-08-07T06:02:20.097Z,17.43
2022-08-07T06:05:11.020Z,18.27
2022-08-07T06:10:46.548Z,16.47
2022-08-07T06:22:15.116Z,17.07
2022-08-07T06:27:44.390Z,18.50
2022-08-07T06:30:32.080Z,19.57
2022-08-07T06:36:11.983Z,15.83
2022-08-07T06:42:00.474Z,16.53
2022-08-07T06:50:04.449Z,14.17
2022-08-07T06:55:53.989Z,16.10
2022-08-07T07:01:17.172Z,16.17
2022-08-07T07:07:00.683Z,16.20
2022-08-07T07:12:33.365Z,16.97
2022-08-07T07:20:58.169Z,13.93
2022-08-07T07:24:08.527Z,16.20
2022-08-07T07:29:55.756Z,16.60
2022-08-07T07:34:55.895Z,16.00
2022-08-07T07:40:29.813Z,13.63
2022-08-07T07:46:53.684Z,11.70
2022-08-07T07:48:48.541Z,10.70
2022-08-07T07:54:24.068Z,14.33
2022-08-07T07:57:15.598Z,12.97
2022-08-07T08:05:54.762Z,10.63
2022-08-07T08:11:59.492Z,10.43
2022-08-07T08:14:11.601Z,11.50
2022-08-07T08:17:56.230Z,14.27
2022-08-07T08:23:01.800Z,11.13
2022-08-07T08:28:46.181Z,11.63
2022-08-07T08:34:27.235Z,10.73
2022-08-07T08:40:00.048Z,11.60
2022-08-07T08:45:41.975Z,11.63
2022-08-07T08:51:26.163Z,12.37
2022-08-07T09:05:41.493Z,13.60
2022-08-07T09:11:43.720Z,9.73
2022-08-07T09:17:10.183Z,13.80
2022-08-07T09:24:28.681Z,13.63
2022-08-07T09:25:54.308Z,12.27
2022-08-07T09:37:05.437Z,11.83
2022-08-07T09:47:27.797Z,9.27
2022-08-07T09:54:40.189Z,11.70
2022-08-07T10:00:35.945Z,13.40
2022-08-07T10:04:03.670Z,9.73
2022-08-07T10:12:55.510Z,10.90
2022-08-07T10:19:03.065Z,9.13
2022-08-07T10:24:59.957Z,9.63
2022-08-07T10:27:56.871Z,9.13
2022-08-07T10:34:15.567Z,8.63
2022-08-07T10:40:02.895Z,8.07
2022-08-07T10:42:41.235Z,9.87
2022-08-07T10:45:44.784Z,10.30
2022-08-07T10:51:16.630Z,9.80
2022-08-07T10:54:09.645Z,10.23
2022-08-07T11:00:02.677Z,10.73
2022-08-07T11:02:57.265Z,8.10
2022-08-07T11:05:51.361Z,7.97
2022-08-07T11:11:35.958Z,10.73
2022-08-07T11:17:23.487Z,8.43
2022-08-07T11:20:13.565Z,6.50
2022-08-07T11:26:06.330Z,6.70
2022-08-07T11:31:40.113Z,7.93
2022-08-07T11:40:11.169Z,6.93
2022-08-07T11:46:11.393Z,7.77
2022-08-07T11:52:07.393Z,6.83
2022-08-07T11:58:00.443Z,4.10
2022-08-07T12:04:06.287Z,6.43
2022-08-07T12:09:49.662Z,6.27
2022-08-07T12:15:35.670Z,7.87
2022-08-07T12:21:55.047Z,3.93
2022-08-07T12:26:53.966Z,6.90
2022-08-07T12:32:32.388Z,6.13
2022-08-07T12:35:24.020Z,5.37
2022-08-07T12:41:00.898Z,3.30
2022-08-07T12:46:42.392Z,3.90
2022-08-07T12:49:39.701Z,4.80
2022-08-07T12:55:18.192Z,3.17
2022-08-07T13:01:00.086Z,4.97
2022-08-07T13:07:17.879Z,4.23
2022-08-07T13:10:37.992Z,3.70
2022-08-07T13:13:53.817Z,4.20
2022-08-07T13:19:50.519Z,3.10
2022-08-07T13:22:32.313Z,4.60
2022-08-07T13:28:18.656Z,6.83
2022-08-07T13:31:13.083Z,3.80
2022-08-07T13:36:46.220Z,4.63
2022-08-07T13:46:06.684Z,3.00
2022-08-07T13:51:27.050Z,3.20
2022-08-07T13:56:51.665Z,2.60
2022-08-07T14:02:29.782Z,2.60
2022-08-07T14:08:00.901Z,2.43
2022-08-07T14:11:14.530Z,2.07
2022-08-07T14:16:42.014Z,2.50
2022-08-07T14:22:34.752Z,2.33
2022-08-07T14:25:19.005Z,3.23
2022-08-07T14:30:59.980Z,3.63
2022-08-07T14:36:39.102Z,2.50
2022-08-07T14:42:20.379Z,2.23
2022-08-07T14:47:52.993Z,2.30
2022-08-07T14:54:05.880Z,3.90
2022-08-07T14:59:13.743Z,2.50
2022-08-07T15:04:56.777Z,2.07
2022-08-07T15:10:35.498Z,2.40
2022-08-07T15:16:19.803Z,2.30
2022-08-07T15:22:04.678Z,2.43
2022-08-07T15:27:37.177Z,2.10
2022-08-07T15:33:19.509Z,3.60
2022-08-07T15:39:03.675Z,2.40
2022-08-07T15:44:52.551Z,2.10
2022-08-07T15:50:37.823Z,2.87
2022-08-07T15:56:09.927Z,2.23
2022-08-07T16:02:01.735Z,3.03
2022-08-07T16:08:33.521Z,4.20
2022-08-07T16:10:37.250Z,4.40
2022-08-07T16:13:58.855Z,2.80
2022-08-07T16:19:41.964Z,2.87
2022-08-07T16:22:54.865Z,3.37
2022-08-07T16:25:56.161Z,2.37
2022-08-07T16:31:57.716Z,4.23
2022-08-07T16:38:09.565Z,2.23
2022-08-07T16:41:22.276Z,5.23
2022-08-07T16:50:52.624Z,2.57
2022-08-07T16:53:56.990Z,3.83
2022-08-07T16:56:37.627Z,5.77
2022-08-07T17:02:54.321Z,7.00
2022-08-07T17:09:08.573Z,3.03
2022-08-07T17:14:18.674Z,2.23
2022-08-07T17:17:05.695Z,2.90
2022-08-07T17:22:42.622Z,4.03
2022-08-07T17:28:22.171Z,3.20
2022-08-07T17:34:18.295Z,2.10
2022-08-07T17:36:59.908Z,3.30
2022-08-07T17:42:58.544Z,2.67
2022-08-07T17:48:30.643Z,7.53
2022-08-07T17:51:23.105Z,4.87
2022-08-07T17:57:18.937Z,4.10
2022-08-07T18:02:53.879Z,2.73
2022-08-07T18:08:33.278Z,4.40
2022-08-07T18:14:16.558Z,3.30
2022-08-07T18:17:10.855Z,2.80
2022-08-07T18:22:53.460Z,3.73
2022-08-07T18:28:58.743Z,3.47
2022-08-07T18:38:58.808Z,3.13
2022-08-07T18:43:12.159Z,3.80
2022-08-07T18:50:31.269Z,3.93
2022-08-07T18:57:31.588Z,2.90
2022-08-07T19:06:16.460Z,6.50
2022-08-07T19:12:06.147Z,3.83
2022-08-07T19:15:22.822Z,4.93
2022-08-07T19:21:09.613Z,3.87
2022-08-07T19:26:29.382Z,4.13
2022-08-07T19:32:18.018Z,3.50
2022-08-07T19:37:57.100Z,2.80
2022-08-07T19:43:45.024Z,3.10
2022-08-07T19:49:57.548Z,3.17
2022-08-07T19:55:14.465Z,3.07
2022-08-07T19:58:13.133Z,4.70
2022-08-07T20:03:43.893Z,3.83
2022-08-07T20:12:37.226Z,4.37
2022-08-07T20:15:33.039Z,2.80
2022-08-07T20:21:21.614Z,3.80
2022-08-07T20:24:06.075Z,3.10
2022-08-07T20:27:01.598Z,3.27
2022-08-07T20:32:54.695Z,5.13
2022-08-07T20:38:33.750Z,4.40
2022-08-07T20:41:23.873Z,4.97
2022-08-07T20:44:15.840Z,4.10
2022-08-07T20:50:02.023Z,3.50
2022-08-07T20:52:51.879Z,3.30
2022-08-07T20:55:40.714Z,3.80
2022-08-07T20:58:32.329Z,5.90
2022-08-07T21:01:23.252Z,3.73
2022-08-07T21:04:21.652Z,3.53
2022-08-07T21:10:00.161Z,4.43
2022-08-07T21:15:47.558Z,2.70
2022-08-07T21:21:11.815Z,2.90
2022-08-07T21:26:52.151Z,4.27
2022-08-07T21:32:46.624Z,3.57
2022-08-07T21:35:34.651Z,4.77
2022-08-07T21:44:14.702Z,4.27
2022-08-07T21:50:02.293Z,3.33
2022-08-07T21:55:40.071Z,5.10
2022-08-07T22:01:19.539Z,3.30
2022-08-07T22:07:03.422Z,7.43
2022-08-07T22:12:51.475Z,5.20
2022-08-07T22:18:26.829Z,4.57
2022-08-07T22:21:19.500Z,4.27
2022-08-07T22:26:58.366Z,3.57
2022-08-07T22:35:16.325Z,4.70
2022-08-07T22:43:51.510Z,4.07
2022-08-07T22:47:23.259Z,5.30
2022-08-07T22:50:29.002Z,3.97
2022-08-07T22:54:06.452Z,8.30
2022-08-07T23:02:50.331Z,5.77
2022-08-07T23:06:09.091Z,3.73
2022-08-07T23:12:00.184Z,4.47
2022-08-07T23:18:03.092Z,4.83
2022-08-07T23:24:11.793Z,5.33
2022-08-07T23:30:38.975Z,4.37
2022-08-07T23:36:29.128Z,6.87
2022-08-07T23:48:43.487Z,5.80
2022-08-07T23:53:00.428Z,4.77
2022-08-07T23:57:20.169Z,4.73
